Latest Weather Observations for Cooma Airport

IDN60901

Issued at 4:41 am EDT Sunday 21 October 2018 (issued every 10 minutes, with the page automatically refreshed every 10 minutes)

About weather observations | Map of Canberra area stations | Latest observations for Canberra area | Other Formats
Station Details ID: 070217 Name: COOMA AIRPORT AWS Lat: -36.29 Lon: 148.97 Height: 930.0 m
Data from the previous 72 hours. | See also: Recent months at Cooma Airport
Date/Time
EDT
Temp
°C
App
Temp
°C
Dew
Point
°C
Rel
Hum
%
Delta-T
°C
Wind Press
QNH
hPa
Press
MSL
hPa
Rain since
9am
mm
Dir  Spd
km/h
Gust
km/h
Spd
kts
Gust
kts
21/04:30am 3.4 -2.0 2.7 95 0.3 SW 20 24 11 13 1016.3 1015.1 5.6
21/04:00am 4.1 -2.3 3.1 93 0.4 SSW 26 30 14 16 1016.2 1015.0 5.6
21/03:30am 4.6 -2.5 3.7 94 0.4 SSW 30 37 16 20 1016.3 1015.1 5.6
21/03:00am 4.6 -2.4 3.9 95 0.3 SW 30 37 16 20 1016.3 1015.1 5.6
21/02:30am 5.2 -2.0 5.1 99 0.0 SW 32 39 17 21 1016.3 1015.1 5.6
21/02:09am 5.3 -1.9 5.2 99 0.0 SW 32 37 17 20 1016.2 1015.0 5.6
21/02:00am 5.4 -1.4 5.3 99 0.0 SW 30 37 16 20 1016.3 1015.1 5.6
21/01:56am 5.5 -1.2 5.4 99 0.0 SW 30 35 16 19 1016.4 1015.2 5.6
21/01:42am 5.5 -1.2 5.4 99 0.0 SW 30 37 16 20 1016.7 1015.5 5.6
21/01:30am 5.5 -1.2 5.4 99 0.0 SW 30 35 16 19 1016.7 1015.5 5.6
21/01:02am 6.4 0.2 6.3 99 0.0 SSW 28 32 15 17 1017.0 1015.8 5.6
21/01:00am 6.4 0.2 6.3 99 0.0 SSW 28 32 15 17 1017.0 1015.8 5.6
21/12:30am 6.6 1.2 6.5 99 0.0 SSW 24 30 13 16 1017.2 1016.0 5.6
21/12:00am 7.2 2.7 7.1 99 0.0 S 20 32 11 17 1017.2 1016.0 5.6
 
Date/Time
EDT
Temp
°C
App
Temp
°C
Dew
Point
°C
Rel
Hum
%
Delta-T
°C
Wind Press
QNH
hPa
Press
MSL
hPa
Rain since
9am
mm
Dir  Spd
km/h
Gust
km/h
Spd
kts
Gust
kts
20/11:30pm 8.3 5.8 8.2 99 0.1 SSW 11 15 6 8 1017.2 1016.0 5.6
20/11:00pm 8.5 4.9 8.2 98 0.2 S 17 20 9 11 1017.2 1016.0 5.6
20/10:30pm 8.5 4.8 8.1 97 0.2 SW 17 20 9 11 1017.1 1015.9 5.6
20/10:00pm 8.7 5.2 8.6 99 0.1 SW 17 20 9 11 1016.8 1015.6 5.6
20/09:30pm 8.7 5.2 8.6 99 0.1 SSW 17 20 9 11 1016.3 1015.1 5.6
20/09:00pm 8.8 5.3 8.7 99 0.1 SW 17 20 9 11 1016.2 1015.0 5.6
20/08:30pm 8.9 5.7 8.6 98 0.2 SSW 15 19 8 10 1016.0 1014.8 5.6
20/08:00pm 8.7 4.2 8.4 98 0.2 SSW 22 26 12 14 1015.0 1013.8 5.6
20/07:30pm 9.1 5.0 8.6 97 0.3 SW 20 24 11 13 1014.8 1013.6 5.6
20/07:00pm 9.3 6.2 8.7 96 0.3 SSW 15 19 8 10 1014.4 1013.1 5.6
20/06:30pm 9.3 5.3 9.2 99 0.1 SW 20 26 11 14 1013.8 1012.6 5.6
20/06:10pm 9.7 6.3 9.2 97 0.3 SSW 17 24 9 13 1013.5 1012.2 5.6
20/06:08pm 9.6 6.2 9.0 96 0.3 SSW 17 24 9 13 1013.7 1012.5 5.6
20/06:00pm 9.7 5.6 8.6 93 0.6 SSW 20 26 11 14 1013.3 1012.0 5.6
20/05:30pm 9.2 1.6 9.1 99 0.1 S 39 46 21 25 1013.4 1012.1 5.6
20/05:20pm 9.8 3.1 9.7 99 0.1 SSW 35 44 19 24 1014.0 1012.8 5.6
20/05:08pm 10.4 2.6 9.6 95 0.4 SW 41 50 22 27 1014.0 1012.8 5.6
20/05:00pm 11.5 4.3 10.6 94 0.5 SSW 39 61 21 33 1013.4 1012.1 5.6
20/04:55pm 12.7 9.3 10.6 87 1.1 WNW 19 61 10 33 1012.8 1011.6 5.6
20/04:53pm 13.5 11.7 10.9 84 1.4 NNW 11 43 6 23 1012.9 1011.7 5.6
20/04:30pm 14.8 14.2 13.5 92 0.8 NW 9 13 5 7 1012.4 1011.1 5.6
20/04:06pm 14.2 12.3 13.1 93 0.6 NW 15 22 8 12 1011.7 1010.4 5.6
20/04:00pm 14.1 11.2 12.8 92 0.7 NNW 20 28 11 15 1011.4 1010.1 5.6
20/03:30pm 13.5 7.3 9.2 75 2.3 NW 32 76 17 41 1011.7 1010.4 3.6
20/03:27pm 14.7 8.2 8.9 68 3.1 NNW 33 76 18 41 1011.6 1010.3 2.8
20/03:25pm 14.3 7.4 7.4 63 3.6 NNW 33 76 18 41 1012.2 1010.9 2.6
20/03:24pm 15.5 9.0 8.0 61 4.0 NNW 32 76 17 41 1012.1 1010.8 0.8
20/03:00pm 20.2 15.0 11.7 58 4.9 N 30 44 16 24 1011.1 1009.8 0.4
20/02:30pm 20.2 14.9 10.0 52 5.7 N 28 39 15 21 1011.0 1009.7 0.4
20/02:00pm 20.3 14.3 12.0 59 4.8 N 35 57 19 31 1011.2 1009.9 0.4
20/01:52pm 19.8 14.5 11.3 58 4.9 N 30 48 16 26 1011.1 1009.8 0.4
20/01:30pm 19.7 15.5 12.5 63 4.2 N 26 43 14 23 1011.6 1010.3 0.4
20/01:11pm 19.1 14.2 11.4 61 4.4 N 28 48 15 26 1011.8 1010.6 0.4
20/01:00pm 18.7 14.8 12.0 65 3.9 N 24 33 13 18 1012.2 1010.9 0.4
20/12:30pm 18.6 12.9 11.2 62 4.2 NNW 32 44 17 24 1012.4 1011.1 0.4
20/12:15pm 16.1 10.0 10.4 69 3.2 NNW 33 52 18 28 1011.8 1010.6 0.2
20/12:01pm 18.5 11.1 9.8 57 4.8 NNW 39 63 21 34 1012.9 1011.7 0.0
20/12:00pm 18.8 11.7 9.6 55 5.1 NNW 37 63 20 34 1012.9 1011.7 0.0
20/11:58am 19.6 12.9 10.9 57 5.0 NNW 37 63 20 34 1012.9 1011.7 0.0
20/11:57am 20.2 13.8 11.9 59 4.8 N 37 57 20 31 1012.7 1011.4 0.0
20/11:30am 22.4 15.9 10.2 46 7.0 NNW 35 48 19 26 1012.1 1010.8 0.0
20/11:07am 24.1 17.1 11.1 44 7.6 NNW 39 54 21 29 1012.4 1011.1 0.0
20/11:00am 24.8 18.0 12.1 45 7.6 N 39 56 21 30 1012.2 1010.9 0.0
20/10:54am 23.4 16.6 10.8 45 7.3 N 37 56 20 30 1012.4 1011.1 0.0
20/10:30am 23.9 17.9 10.2 42 7.9 NNW 32 44 17 24 1013.0 1011.8 0.0
20/10:00am 22.4 16.8 11.5 50 6.4 N 32 44 17 24 1013.6 1012.3 0.0
20/09:38am 22.0 17.2 11.7 52 6.0 N 28 54 15 29 1013.8 1012.6 0.0
20/09:30am 21.5 17.0 11.5 53 5.8 N 26 37 14 20 1014.0 1012.8 0.0
20/09:00am 19.8 16.7 12.1 61 4.5 N 20 26 11 14 1014.2 1013.0 0.0
20/08:30am 19.3 15.7 11.8 62 4.3 N 22 30 12 16 1014.1 1012.9 0.0
20/08:00am 18.1 13.7 10.5 61 4.3 N 24 33 13 18 1014.1 1012.9 0.0
20/07:38am 18.3 13.2 10.7 61 4.3 NNW 28 46 15 25 1013.9 1012.7 0.0
20/07:30am 18.2 13.1 10.6 61 4.3 N 28 37 15 20 1014.0 1012.8 0.0
20/07:00am 18.1 13.2 10.0 59 4.5 NNW 26 35 14 19 1014.0 1012.8 0.0
20/06:30am 17.9 13.5 9.0 56 4.9 NNW 22 30 12 16 1013.9 1012.7 0.0
20/06:22am 18.2 13.9 9.3 56 4.9 NNW 22 28 12 15 1013.8 1012.6 0.0
20/06:00am 13.2 10.0 5.1 58 4.0 NE 11 15 6 8 1013.8 1012.6 0.0
20/05:30am 13.2 8.8 4.6 56 4.2 ENE 17 19 9 10 1013.7 1012.5 0.0
20/05:00am 13.2 8.8 4.6 56 4.2 ENE 17 19 9 10 1013.5 1012.2 0.0
20/04:30am 12.3 8.1 4.0 57 3.9 NE 15 19 8 10 1013.6 1012.3 0.0
20/04:00am 12.4 7.8 3.9 56 4.0 NE 17 22 9 12 1013.6 1012.3 0.0
20/03:30am 12.7 8.5 3.9 55 4.2 ENE 15 19 8 10 1014.0 1012.8 0.0
20/03:00am 12.5 7.9 3.7 55 4.2 ENE 17 19 9 10 1014.2 1013.0 0.0
20/02:30am 13.0 8.4 3.9 54 4.3 ENE 17 19 9 10 1014.5 1013.2 0.0
20/02:00am 14.3 9.8 4.0 50 5.0 NNE 17 19 9 10 1014.9 1013.7 0.0
20/01:30am 14.4 10.0 4.7 52 4.8 NNE 17 20 9 11 1015.3 1014.1 0.0
20/01:00am 11.1 7.4 4.3 63 3.2 NNE 13 15 7 8 1015.9 1014.7 0.0
20/12:30am 9.2 6.1 3.4 67 2.7 NNE 9 11 5 6 1016.3 1015.1 0.0
20/12:00am 10.4 6.4 3.0 60 3.4 NNE 13 15 7 8 1016.5 1015.4 0.0
 
Date/Time
EDT
Temp
°C
App
Temp
°C
Dew
Point
°C
Rel
Hum
%
Delta-T
°C
Wind Press
QNH
hPa
Press
MSL
hPa
Rain since
9am
mm
Dir  Spd
km/h
Gust
km/h
Spd
kts
Gust
kts
19/11:30pm 9.6 6.8 2.9 63 3.0 NNE 7 11 4 6 1016.7 1015.5 0.0
19/11:00pm 10.3 7.5 3.3 62 3.2 N 7 11 4 6 1016.9 1015.7 0.0
19/10:30pm 11.1 7.9 2.9 57 3.8 N 9 13 5 7 1017.1 1015.9 0.0
19/10:00pm 12.6 10.4 3.3 53 4.4 E 4 9 2 5 1017.2 1016.0 0.0
19/09:30pm 12.9 10.1 3.0 51 4.6 NE 7 9 4 5 1017.3 1016.1 0.0
19/09:00pm 15.2 11.5 2.4 42 6.0 NNW 11 15 6 8 1017.1 1015.9 0.0
19/08:30pm 16.9 12.7 1.8 36 7.1 NW 13 20 7 11 1017.0 1015.8 0.0
19/08:00pm 16.8 13.4 1.7 36 7.1 NW 9 13 5 7 1016.8 1015.6 0.0
19/07:30pm 17.7 12.1 -0.1 30 8.1 WNW 19 22 10 12 1016.4 1015.2 0.0
19/07:00pm 18.9 14.3 -1.0 26 9.0 WNW 13 17 7 9 1015.8 1014.6 0.0
19/06:30pm 21.8 16.3 0.4 24 10.2 WNW 19 28 10 15 1015.3 1014.1 0.0
19/06:00pm 22.7 17.7 1.1 24 10.5 NW 17 28 9 15 1015.1 1013.9 0.0
19/05:30pm 22.7 17.9 -0.1 22 10.8 NW 15 20 8 11 1015.1 1013.9 0.0
19/05:00pm 23.9 19.4 -0.4 20 11.5 NW 13 22 7 12 1015.0 1013.8 0.0
19/04:30pm 24.3 18.3 -1.5 18 12.0 NW 20 32 11 17 1015.2 1014.0 0.0
19/04:00pm 24.0 17.6 -1.8 18 12.0 NNW 22 30 12 16 1015.1 1013.9 0.0
19/03:30pm 24.4 18.0 -1.4 18 12.1 NNW 22 32 12 17 1015.0 1013.8 0.0
19/03:00pm 24.0 18.1 -2.5 17 12.1 NW 19 26 10 14 1015.5 1014.2 0.0
19/02:30pm 24.1 18.8 -0.9 19 11.8 NW 17 30 9 16 1015.9 1014.7 0.0
19/02:00pm 24.1 17.8 -0.9 19 11.8 NW 22 41 12 22 1016.2 1015.0 0.0
19/01:30pm 23.7 17.5 -4.4 15 12.4 NW 19 28 10 15 1016.7 1015.5 0.0
19/01:00pm 23.3 16.9 -1.6 19 11.5 NNW 22 30 12 16 1016.8 1015.6 0.0
19/12:30pm 22.9 17.0 -0.6 21 11.0 NNW 20 30 11 16 1017.1 1015.9 0.0
19/12:00pm 22.0 16.1 -0.7 22 10.6 NNW 20 33 11 18 1017.4 1016.2 0.0
19/11:30am 21.8 16.3 0.4 24 10.2 NW 19 28 10 15 1018.0 1016.8 0.0
19/11:00am 20.1 14.7 -1.1 24 9.6 NW 17 26 9 14 1018.3 1017.1 0.0
19/10:30am 19.5 14.4 1.0 29 8.7 NW 17 26 9 14 1018.7 1017.6 0.0
19/10:00am 18.4 13.8 3.5 37 7.3 NNW 17 24 9 13 1019.0 1017.8 0.0
19/09:30am 16.8 13.1 4.5 44 6.1 NW 13 30 7 16 1019.2 1018.0 0.0
19/09:00am 14.6 11.7 6.7 59 4.0 NNE 11 17 6 9 1019.2 1018.0 0.0
19/08:30am 13.6 10.1 7.4 66 3.2 NNE 15 17 8 9 1019.2 1018.0 0.0
19/08:00am 11.4 8.7 7.3 76 2.1 NE 11 15 6 8 1019.2 1018.0 0.0
19/07:30am 9.3 7.5 7.9 91 0.7 NE 7 9 4 5 1019.2 1018.0 0.0
19/07:00am 6.3 4.0 5.9 97 0.2 NE 7 9 4 5 1019.1 1017.9 0.0
19/06:30am 5.7 3.0 5.6 99 0.0 NE 9 11 5 6 1018.7 1017.6 0.0
19/06:00am 4.6 1.9 3.7 94 0.4 NE 7 13 4 7 1018.5 1017.4 0.0
19/05:30am 5.7 2.9 5.3 97 0.2 N 9 13 5 7 1018.4 1017.3 0.0
19/05:00am 4.6 0.8 4.0 96 0.3 NNE 13 15 7 8 1018.3 1017.1 0.0
19/04:30am 5.1 3.7 3.8 91 0.6 CALM 0 6 0 3 1018.1 1016.9 0.0
19/04:00am 5.9 3.2 5.8 99 0.0 N 9 11 5 6 1018.2 1017.0 0.0
19/03:30am 3.9 1.0 2.7 92 0.5 NE 7 9 4 5 1018.2 1017.0 0.0
19/03:00am 5.8 3.6 5.2 96 0.3 N 6 7 3 4 1018.4 1017.3 0.0
19/02:30am 7.4 5.6 7.3 99 0.0 N 6 7 3 4 1018.3 1017.1 0.0
19/02:00am 5.2 2.2 4.2 93 0.4 NE 9 13 5 7 1018.5 1017.4 0.0
19/01:30am 7.3 6.4 6.1 92 0.6 CALM 0 0 0 0 1018.8 1017.7 0.0
19/01:00am 6.1 3.6 3.9 86 1.0 SSW 6 7 3 4 1019.2 1018.0 0.0
19/12:30am 8.1 6.0 5.7 85 1.1 NNW 6 9 3 5 1019.3 1018.1 0.0
19/12:00am 9.9 7.9 7.2 83 1.3 SW 7 9 4 5 1019.4 1018.3 0.0
 
Date/Time
EDT
Temp
°C
App
Temp
°C
Dew
Point
°C
Rel
Hum
%
Delta-T
°C
Wind Press
QNH
hPa
Press
MSL
hPa
Rain since
9am
mm
Dir  Spd
km/h
Gust
km/h
Spd
kts
Gust
kts
18/11:30pm 9.0 6.9 5.6 79 1.6 W 6 9 3 5 1019.5 1018.4 0.0
18/11:00pm 10.0 8.2 5.4 73 2.2 NW 4 7 2 4 1019.3 1018.1 0.0
18/10:30pm 11.9 9.3 6.2 68 2.8 NW 9 11 5 6 1019.2 1018.0 0.0
18/10:00pm 12.1 8.3 5.9 66 3.1 NW 15 19 8 10 1019.1 1017.9 0.0
18/09:30pm 12.3 8.5 5.9 65 3.2 NW 15 19 8 10 1019.1 1017.9 0.0
18/09:00pm 13.6 9.8 5.7 59 3.9 WNW 15 17 8 9 1019.0 1017.8 0.0
18/08:30pm 13.4 9.6 5.6 59 3.9 WNW 15 19 8 10 1018.6 1017.5 0.0
18/08:00pm 13.4 9.9 5.3 58 4.0 WNW 13 17 7 9 1018.2 1017.0 0.0
18/07:30pm 14.8 11.3 5.3 53 4.7 WNW 13 15 7 8 1018.0 1016.8 0.0
18/07:00pm 16.8 13.6 5.1 46 5.9 NW 11 17 6 9 1017.5 1016.4 0.0
18/06:30pm 17.9 13.9 4.8 42 6.6 WNW 15 24 8 13 1017.0 1015.8 0.0
18/06:00pm 18.8 14.6 5.6 42 6.8 WNW 17 24 9 13 1016.8 1015.6 0.0
18/05:30pm 19.1 13.3 4.5 38 7.4 WNW 24 33 13 18 1016.4 1015.2 0.0
18/05:00pm 18.7 13.6 4.1 38 7.3 NW 20 35 11 19 1016.2 1015.0 0.0
18/04:30pm 19.2 14.4 5.6 41 7.0 NW 20 28 11 15 1016.2 1015.0 0.0
18/04:00pm 20.2 15.6 5.8 39 7.5 NW 19 30 10 16 1016.2 1015.0 0.0
18/03:30pm 20.9 15.5 6.4 39 7.7 NW 24 37 13 20 1016.1 1014.9 0.0
18/03:00pm 20.4 15.7 6.0 39 7.5 NW 20 30 11 16 1016.1 1014.9 0.0
18/02:30pm 19.4 13.6 6.2 42 6.9 NW 26 35 14 19 1016.3 1015.1 0.0
18/02:00pm 21.0 16.5 8.6 45 6.8 NW 22 32 12 17 1016.4 1015.2 0.0
18/01:30pm 20.5 14.8 6.5 40 7.4 NW 26 41 14 22 1016.5 1015.4 0.0
18/01:00pm 19.1 13.3 6.2 43 6.7 NW 26 39 14 21 1016.8 1015.6 0.0
18/12:33pm 18.8 12.6 6.3 44 6.5 NW 28 46 15 25 1016.9 1015.7 0.0
18/12:30pm 18.9 13.1 6.4 44 6.5 NW 26 43 14 23 1016.8 1015.6 0.0
18/12:00pm 19.1 13.7 8.1 49 5.9 NW 26 35 14 19 1016.9 1015.7 0.0
18/11:30am 18.8 13.3 7.6 48 6.0 WNW 26 37 14 20 1017.1 1015.9 0.0
18/11:15am 18.4 12.4 6.9 47 6.0 NW 28 48 15 26 1017.1 1015.9 0.0
18/11:00am 18.3 11.5 6.8 47 6.0 NW 32 46 17 25 1017.2 1016.0 0.0
18/10:40am 18.5 12.3 7.9 50 5.7 NNW 30 48 16 26 1017.3 1016.1 0.0
18/10:30am 18.1 11.4 7.2 49 5.8 NNW 32 44 17 24 1017.3 1016.1 0.0
18/10:00am 16.8 10.2 7.7 55 4.8 NNW 32 54 17 29 1017.5 1016.4 0.0
18/09:54am 16.9 10.6 7.5 54 5.0 NNW 30 54 16 29 1017.5 1016.4 0.0
18/09:52am 16.5 10.6 7.4 55 4.8 NNW 28 41 15 22 1017.5 1016.4 0.0
18/09:30am 15.0 12.4 10.6 75 2.4 NNE 15 20 8 11 1017.4 1016.2 0.0
18/09:00am 14.1 10.5 9.7 75 2.4 N 19 28 10 15 1017.2 1016.0 0.0
18/08:30am 13.6 9.9 10.2 80 1.9 NE 20 26 11 14 1017.0 1015.8 0.0
18/08:00am 12.3 9.0 9.5 83 1.5 NE 17 19 9 10 1017.2 1016.0 0.0
18/07:30am 11.0 9.6 10.8 99 0.1 NNE 9 11 5 6 1017.2 1016.0 0.0
18/07:00am 9.0 6.7 9.0 100 0.0 N 11 13 6 7 1016.9 1015.7 0.0
18/06:30am 7.0 3.4 6.9 99 0.0 NE 15 17 8 9 1016.5 1015.4 0.0
18/06:00am 7.0 5.0 6.9 99 0.0 ENE 7 11 4 6 1016.2 1015.0 0.0
18/05:30am 7.4 4.7 7.4 100 0.0 NE 11 13 6 7 1015.8 1014.6 0.0
18/05:10am 7.4 4.3 7.4 100 0.0 ENE 13 13 7 7 1015.7 1014.5 0.0
18/05:00am 7.7 6.4 7.7 100 0.0 NE 4 9 2 5 1015.6 1014.4 0.0
18/04:55am 7.7 6.8 7.7 100 0.0 NE 2 7 1 4 1015.6 1014.4 0.0

Latest Capital City Observations: Canberra | Sydney | Melbourne | Brisbane | Adelaide | Perth | Hobart | Darwin

Other Formats:

Comma delimited format used in spreadsheet applications
http://www.bom.gov.au/fwo/IDN60903/IDN60903.94921.axf

JavaScript Object Notation format (JSON) in row-major order
http://www.bom.gov.au/fwo/IDN60903/IDN60903.94921.json